Nearby METAR Reports

 

KICL - Clarinda, Iowa, USA
Distance from station: N 49mi, 79km
Updated: Sun, 03-Mar-2024 3:55pm CST
Clear
Clear
 Wind from WNW
Wind: WNW 17 mph , 28 km/h, Gust: 25 mph , 41 km/h
Temperature: 72°F , 22°C
Dew Point: 28°F , -2°C
Humidity: 20%
Barometer: 29.60 inHg , 1002.4 hPa
Clouds: Clear
Visibility: 10 miles , 16 km
2024/03/03 21:55 KICL 032155Z AUTO 29015G22KT 10SM CLR 22/M02 A2960 RMK AO2
KDSM - Des Moines, Iowa, USA
Distance from station: NNE 122mi, 196km
Updated: Sun, 03-Mar-2024 3:54pm CST
Mostly cloudy
Mostly cloudy
 Wind from WSW
Wind: WSW 25 mph , 41 km/h, Gust: 43 mph , 69 km/h
Temperature: 75°F , 24°C
Dew Point: 28°F , -2°C
Humidity: 18%
Barometer: 29.51 inHg , 999.3 hPa
Clouds: Mostly cloudy
Visibility: 10 miles , 16 km
Cloud details: Few Clouds 8000 ft
Mostly cloudy 25000 ft
2024/03/03 21:54 KDSM 032154Z 25022G37KT 10SM FEW080 BKN250 24/M02 A2951 RMK AO2 PK WND 24047/2118 PRESRR SLP986 T02441022
KFNB - Falls City, Nebraska, USA
Distance from station: W 50mi, 80km
Updated: Sun, 03-Mar-2024 3:53pm CST
Clear
Clear
 Wind from W
Wind: W 18 mph , 30 km/h, Gust: 24 mph , 39 km/h
Temperature: 73°F , 23°C
Dew Point: 30°F , -1°C
Humidity: 20%
Barometer: 29.59 inHg , 1002 hPa
Clouds: Clear
Visibility: 10 miles , 16 km
2024/03/03 21:53 KFNB 032153Z AUTO 27016G21KT 10SM CLR 23/M01 A2959 RMK AO2 SLP013 T02331011
 
KMCI - Kansas City, Missouri, USA
Distance from station: S 65mi, 104km
Updated: Sun, 03-Mar-2024 3:53pm CST
Partly cloudy
Partly cloudy
 Wind from SW
Wind: SW 21 mph , 33 km/h, Gust: 31 mph , 50 km/h
Temperature: 79°F , 26°C
Dew Point: 30°F , -1°C
Humidity: 17%
Barometer: 29.58 inHg , 1001.7 hPa
Clouds: Partly cloudy
Visibility: 10 miles , 16 km
Cloud details: Partly cloudy 25000 ft
2024/03/03 21:53 KMCI 032153Z 23018G27KT 10SM SCT250 26/M01 A2958 RMK AO2 PK WND 23032/2121 SLP009 T02611006
KOMA - Omaha, Nebraska, USA
Distance from station: NNW 105mi, 169km
Updated: Sun, 03-Mar-2024 3:52pm CST
Partly cloudy
Partly cloudy
 Wind from WNW
Wind: WNW 13 mph , 20 km/h
Temperature: 68°F , 20°C
Dew Point: 34°F , 1°C
Humidity: 28%
Barometer: 29.57 inHg , 1001.4 hPa
Clouds: Partly cloudy
Visibility: 10 miles , 16 km
Cloud details: Few Clouds 7000 ft
Few Clouds 16000 ft
Partly cloudy 25000 ft
2024/03/03 21:52 KOMA 032152Z 30011KT 10SM FEW070 FEW160 SCT250 20/01 A2957 RMK AO2 SLP010 T02000011
KRDK - Red Oak, Iowa, USA
Distance from station: N 70mi, 112km
Updated: Sun, 03-Mar-2024 3:55pm CST
Clear
Clear
 Wind from W
Wind: W 17 mph , 28 km/h, Gust: 29 mph , 46 km/h
Temperature: 72°F , 22°C
Dew Point: 28°F , -2°C
Humidity: 20%
Barometer: 29.57 inHg , 1001.4 hPa
Clouds: Clear
Visibility: 10 miles , 16 km
2024/03/03 21:55 KRDK 032155Z AUTO 26015G25KT 10SM CLR 22/M02 A2957 RMK AO2
 
KSTJ - Saint Joseph, Missouri, USA
Distance from station: SW 23mi, 37km
Updated: Sun, 03-Mar-2024 3:53pm CST
Clear
Clear
 Wind from W
Wind: W 23 mph , 37 km/h, Gust: 36 mph , 57 km/h
Temperature: 77°F , 25°C
Dew Point: 27°F , -3°C
Humidity: 15%
Barometer: 29.57 inHg , 1001.4 hPa
Clouds: Clear
Visibility: 10 miles , 16 km
2024/03/03 21:53 KSTJ 032153Z 26020G31KT 10SM CLR 25/M03 A2957 RMK AO2 PK WND 27034/2124 SLP007 T02501028
KTOP - Topeka, Kansas, USA
Distance from station: SW 85mi, 137km
Updated: Sun, 03-Mar-2024 3:53pm CST
Clear
Clear
 Wind from W
Wind: W 18 mph , 30 km/h, Gust: 31 mph , 50 km/h
Temperature: 79°F , 26°C
Dew Point: 27°F , -3°C
Humidity: 15%
Barometer: 29.60 inHg , 1002.4 hPa
Clouds: Clear
Visibility: 10 miles , 16 km
2024/03/03 21:53 KTOP 032153Z 27016G27KT 10SM CLR 26/M03 A2960 RMK AO2 PK WND 26030/2115 SLP014 T02561028
KICT - Wichita, Kansas, USA
Distance from station: SW 215mi, 346km
Updated: Sun, 03-Mar-2024 3:53pm CST
Mostly cloudy
Mostly cloudy
 Wind from WNW
Wind: WNW 12 mph , 19 km/h
Temperature: 79°F , 26°C
Dew Point: 28°F , -2°C
Humidity: 16%
Barometer: 29.62 inHg , 1003 hPa
Clouds: Mostly cloudy
Visibility: 10 miles , 16 km
Cloud details: Partly cloudy 22000 ft
Mostly cloudy 25000 ft
2024/03/03 21:53 KICT 032153Z 29010KT 10SM SCT220 BKN250 26/M02 A2962 RMK AO2 SLP022 T02611017